Saint John, Virgin Islands
Current Conditions -  °F | °C
As of 5:00 PM on Tuesday 27 Jan 2015 (Local Time) from TUPJ Reporting Station
Few Clouds Few Clouds  
Wind Chill: 82°   Ceiling: Unl
Heat Index: 87°   Visibility: 6mi
Dew Point: 72°   Wind: 7mph
Humidity: 70%   Direction: 160°SSE
Pressure: 29.97"   Gusts: NA
Location:  18.33°N, 64.79°W
Report Text: TUPJ 272100Z 16006KT 9999 FEW020 28/22 Q1015 RMK A2999
Loading
Personal Weather Stations






























Interactive Weather Map New forecast layout! Learn more

10-Day Weather Forecast

Advertisements
Track Severe Weather on mobile